sensor_id;sensor_type;location;lat;lon;timestamp;temperature;humidity
16273;DHT22;8244;50.044;9.006;2023-07-31T00:04:45;18.90;99.90
16273;DHT22;8244;50.044;9.006;2023-07-31T00:09:47;19.00;99.90
16273;DHT22;8244;50.044;9.006;2023-07-31T00:14:49;19.00;99.90
16273;DHT22;8244;50.044;9.006;2023-07-31T00:19:52;18.90;99.90
16273;DHT22;8244;50.044;9.006;2023-07-31T00:24:54;19.00;99.90
16273;DHT22;8244;50.044;9.006;2023-07-31T00:29:56;18.90;99.90
16273;DHT22;8244;50.044;9.006;2023-07-31T00:34:59;18.90;99.90
16273;DHT22;8244;50.044;9.006;2023-07-31T00:40:00;18.90;99.90
16273;DHT22;8244;50.044;9.006;2023-07-31T00:45:05;18.90;99.90
16273;DHT22;8244;50.044;9.006;2023-07-31T00:50:08;18.90;99.90
16273;DHT22;8244;50.044;9.006;2023-07-31T00:55:11;18.90;99.90
16273;DHT22;8244;50.044;9.006;2023-07-31T01:00:12;18.90;99.90
16273;DHT22;8244;50.044;9.006;2023-07-31T01:05:16;19.00;99.90
16273;DHT22;8244;50.044;9.006;2023-07-31T01:10:21;18.90;99.90
16273;DHT22;8244;50.044;9.006;2023-07-31T01:15:24;18.90;99.90
16273;DHT22;8244;50.044;9.006;2023-07-31T01:20:28;18.90;99.90
16273;DHT22;8244;50.044;9.006;2023-07-31T01:25:54;18.90;99.90
16273;DHT22;8244;50.044;9.006;2023-07-31T01:30:59;18.90;99.90
16273;DHT22;8244;50.044;9.006;2023-07-31T01:36:01;18.90;99.90
16273;DHT22;8244;50.044;9.006;2023-07-31T01:41:05;18.90;99.90
16273;DHT22;8244;50.044;9.006;2023-07-31T01:46:06;18.90;99.90
16273;DHT22;8244;50.044;9.006;2023-07-31T01:51:08;18.90;99.90
16273;DHT22;8244;50.044;9.006;2023-07-31T01:56:11;18.80;99.90
16273;DHT22;8244;50.044;9.006;2023-07-31T02:01:13;18.90;99.90
16273;DHT22;8244;50.044;9.006;2023-07-31T02:06:14;18.90;99.90
16273;DHT22;8244;50.044;9.006;2023-07-31T02:11:17;18.90;99.90
16273;DHT22;8244;50.044;9.006;2023-07-31T02:16:19;18.90;99.90
16273;DHT22;8244;50.044;9.006;2023-07-31T02:21:21;18.90;99.90
16273;DHT22;8244;50.044;9.006;2023-07-31T02:26:24;18.90;99.90
16273;DHT22;8244;50.044;9.006;2023-07-31T02:31:25;18.90;99.90
16273;DHT22;8244;50.044;9.006;2023-07-31T02:36:28;18.90;99.90
16273;DHT22;8244;50.044;9.006;2023-07-31T02:41:31;18.90;99.90
16273;DHT22;8244;50.044;9.006;2023-07-31T02:46:34;18.90;99.90
16273;DHT22;8244;50.044;9.006;2023-07-31T02:51:36;18.90;99.90
16273;DHT22;8244;50.044;9.006;2023-07-31T02:56:39;18.90;99.90
16273;DHT22;8244;50.044;9.006;2023-07-31T03:01:40;18.90;99.90
16273;DHT22;8244;50.044;9.006;2023-07-31T03:06:42;18.90;99.90
16273;DHT22;8244;50.044;9.006;2023-07-31T03:11:45;18.90;99.90
16273;DHT22;8244;50.044;9.006;2023-07-31T03:16:47;18.90;99.90
16273;DHT22;8244;50.044;9.006;2023-07-31T03:21:49;18.90;99.90
16273;DHT22;8244;50.044;9.006;2023-07-31T03:26:52;18.80;99.90
16273;DHT22;8244;50.044;9.006;2023-07-31T03:31:54;18.80;99.90
16273;DHT22;8244;50.044;9.006;2023-07-31T03:36:55;18.80;99.90
16273;DHT22;8244;50.044;9.006;2023-07-31T03:41:58;18.70;99.90
16273;DHT22;8244;50.044;9.006;2023-07-31T03:47:00;18.50;99.90
16273;DHT22;8244;50.044;9.006;2023-07-31T03:52:03;18.50;99.90
16273;DHT22;8244;50.044;9.006;2023-07-31T03:57:06;18.40;99.90
16273;DHT22;8244;50.044;9.006;2023-07-31T04:02:08;18.30;99.90
16273;DHT22;8244;50.044;9.006;2023-07-31T04:07:10;18.20;99.90
16273;DHT22;8244;50.044;9.006;2023-07-31T04:12:13;18.10;99.90
16273;DHT22;8244;50.044;9.006;2023-07-31T04:17:15;18.00;99.90
16273;DHT22;8244;50.044;9.006;2023-07-31T04:22:16;18.00;99.90
16273;DHT22;8244;50.044;9.006;2023-07-31T04:27:19;17.90;99.90
16273;DHT22;8244;50.044;9.006;2023-07-31T04:32:21;17.80;99.90
16273;DHT22;8244;50.044;9.006;2023-07-31T04:37:23;17.80;99.90
16273;DHT22;8244;50.044;9.006;2023-07-31T04:42:26;17.80;99.90
16273;DHT22;8244;50.044;9.006;2023-07-31T04:47:28;17.80;99.90
16273;DHT22;8244;50.044;9.006;2023-07-31T04:52:29;17.80;99.90
16273;DHT22;8244;50.044;9.006;2023-07-31T04:57:32;17.80;99.90
16273;DHT22;8244;50.044;9.006;2023-07-31T05:02:34;17.90;99.90
16273;DHT22;8244;50.044;9.006;2023-07-31T05:07:36;17.90;99.90
16273;DHT22;8244;50.044;9.006;2023-07-31T05:12:39;18.00;99.90
16273;DHT22;8244;50.044;9.006;2023-07-31T05:17:40;18.00;99.90
16273;DHT22;8244;50.044;9.006;2023-07-31T05:22:42;18.00;99.90
16273;DHT22;8244;50.044;9.006;2023-07-31T05:27:45;18.10;99.90
16273;DHT22;8244;50.044;9.006;2023-07-31T05:32:46;18.20;99.90
16273;DHT22;8244;50.044;9.006;2023-07-31T05:37:48;18.20;99.90
16273;DHT22;8244;50.044;9.006;2023-07-31T05:42:51;18.30;99.90
16273;DHT22;8244;50.044;9.006;2023-07-31T05:47:53;18.30;99.90
16273;DHT22;8244;50.044;9.006;2023-07-31T05:52:54;18.40;99.90
16273;DHT22;8244;50.044;9.006;2023-07-31T05:57:57;18.50;99.90
16273;DHT22;8244;50.044;9.006;2023-07-31T06:02:59;18.50;99.90
16273;DHT22;8244;50.044;9.006;2023-07-31T06:08:01;18.60;99.90
16273;DHT22;8244;50.044;9.006;2023-07-31T06:13:04;18.70;99.90
16273;DHT22;8244;50.044;9.006;2023-07-31T06:18:06;18.80;99.90
16273;DHT22;8244;50.044;9.006;2023-07-31T06:23:08;18.90;99.90
16273;DHT22;8244;50.044;9.006;2023-07-31T06:28:11;19.00;99.90
16273;DHT22;8244;50.044;9.006;2023-07-31T06:33:12;19.10;99.90
16273;DHT22;8244;50.044;9.006;2023-07-31T06:38:14;19.30;99.90
16273;DHT22;8244;50.044;9.006;2023-07-31T06:43:18;19.50;99.90
16273;DHT22;8244;50.044;9.006;2023-07-31T06:48:19;19.70;99.90
16273;DHT22;8244;50.044;9.006;2023-07-31T06:53:21;19.90;99.90
16273;DHT22;8244;50.044;9.006;2023-07-31T06:58:24;19.90;99.90
16273;DHT22;8244;50.044;9.006;2023-07-31T07:03:25;20.00;99.90
16273;DHT22;8244;50.044;9.006;2023-07-31T07:08:27;20.10;99.90
16273;DHT22;8244;50.044;9.006;2023-07-31T07:13:30;20.20;99.90
16273;DHT22;8244;50.044;9.006;2023-07-31T07:18:32;20.90;99.90
16273;DHT22;8244;50.044;9.006;2023-07-31T07:23:33;21.50;99.90
16273;DHT22;8244;50.044;9.006;2023-07-31T07:28:36;21.90;99.90
16273;DHT22;8244;50.044;9.006;2023-07-31T07:33:38;22.20;99.90
16273;DHT22;8244;50.044;9.006;2023-07-31T07:38:40;22.40;99.90
16273;DHT22;8244;50.044;9.006;2023-07-31T07:43:43;22.50;99.90
16273;DHT22;8244;50.044;9.006;2023-07-31T07:48:44;22.80;99.90
16273;DHT22;8244;50.044;9.006;2023-07-31T07:53:46;23.10;99.90
16273;DHT22;8244;50.044;9.006;2023-07-31T07:58:50;23.50;99.90
16273;DHT22;8244;50.044;9.006;2023-07-31T08:03:51;23.60;99.90
16273;DHT22;8244;50.044;9.006;2023-07-31T08:08:53;23.70;99.90
16273;DHT22;8244;50.044;9.006;2023-07-31T08:13:56;23.60;99.90
16273;DHT22;8244;50.044;9.006;2023-07-31T08:18:58;23.80;99.90
16273;DHT22;8244;50.044;9.006;2023-07-31T08:23:59;24.20;99.40
16273;DHT22;8244;50.044;9.006;2023-07-31T08:29:02;24.10;99.60
16273;DHT22;8244;50.044;9.006;2023-07-31T08:34:04;24.60;98.90
16273;DHT22;8244;50.044;9.006;2023-07-31T08:39:06;24.50;97.20
16273;DHT22;8244;50.044;9.006;2023-07-31T08:44:10;24.60;97.80
16273;DHT22;8244;50.044;9.006;2023-07-31T08:49:12;24.30;97.00
16273;DHT22;8244;50.044;9.006;2023-07-31T08:54:14;24.10;98.30
16273;DHT22;8244;50.044;9.006;2023-07-31T08:59:18;24.30;98.40
16273;DHT22;8244;50.044;9.006;2023-07-31T09:04:21;24.20;97.90
16273;DHT22;8244;50.044;9.006;2023-07-31T09:09:24;24.20;97.00
16273;DHT22;8244;50.044;9.006;2023-07-31T09:14:27;24.10;97.50
16273;DHT22;8244;50.044;9.006;2023-07-31T09:19:31;24.10;96.80
16273;DHT22;8244;50.044;9.006;2023-07-31T09:24:34;23.80;97.90
16273;DHT22;8244;50.044;9.006;2023-07-31T09:29:37;24.10;98.10
16273;DHT22;8244;50.044;9.006;2023-07-31T09:34:39;24.30;97.20
16273;DHT22;8244;50.044;9.006;2023-07-31T09:39:47;24.20;97.40
16273;DHT22;8244;50.044;9.006;2023-07-31T09:44:52;24.20;98.00
16273;DHT22;8244;50.044;9.006;2023-07-31T09:49:53;24.30;96.50
16273;DHT22;8244;50.044;9.006;2023-07-31T09:54:55;24.00;97.20
16273;DHT22;8244;50.044;9.006;2023-07-31T09:59:58;23.90;96.60
16273;DHT22;8244;50.044;9.006;2023-07-31T10:05:02;23.70;97.90
16273;DHT22;8244;50.044;9.006;2023-07-31T10:10:05;23.70;98.50
16273;DHT22;8244;50.044;9.006;2023-07-31T10:15:10;23.90;98.70
16273;DHT22;8244;50.044;9.006;2023-07-31T10:20:12;24.10;98.60
16273;DHT22;8244;50.044;9.006;2023-07-31T10:25:18;24.20;98.60
16273;DHT22;8244;50.044;9.006;2023-07-31T10:30:23;24.20;98.40
16273;DHT22;8244;50.044;9.006;2023-07-31T10:35:27;24.60;98.90
16273;DHT22;8244;50.044;9.006;2023-07-31T10:40:29;24.80;95.70
16273;DHT22;8244;50.044;9.006;2023-07-31T10:45:34;24.80;95.80
16273;DHT22;8244;50.044;9.006;2023-07-31T10:50:38;24.90;94.40
16273;DHT22;8244;50.044;9.006;2023-07-31T10:55:41;24.80;94.40
16273;DHT22;8244;50.044;9.006;2023-07-31T11:00:45;24.50;94.90
16273;DHT22;8244;50.044;9.006;2023-07-31T11:05:49;24.60;95.20
16273;DHT22;8244;50.044;9.006;2023-07-31T11:11:05;24.90;95.30
16273;DHT22;8244;50.044;9.006;2023-07-31T11:16:08;25.10;95.10
16273;DHT22;8244;50.044;9.006;2023-07-31T11:21:12;25.10;94.10
16273;DHT22;8244;50.044;9.006;2023-07-31T11:26:16;25.10;94.20
16273;DHT22;8244;50.044;9.006;2023-07-31T11:31:19;25.10;94.50
16273;DHT22;8244;50.044;9.006;2023-07-31T11:36:21;25.20;94.60
16273;DHT22;8244;50.044;9.006;2023-07-31T11:41:23;25.50;94.70
16273;DHT22;8244;50.044;9.006;2023-07-31T11:46:25;25.70;93.50
16273;DHT22;8244;50.044;9.006;2023-07-31T11:51:29;25.50;92.20
16273;DHT22;8244;50.044;9.006;2023-07-31T11:56:31;25.20;93.10
16273;DHT22;8244;50.044;9.006;2023-07-31T12:01:34;25.10;92.00
16273;DHT22;8244;50.044;9.006;2023-07-31T12:06:36;24.90;92.70
16273;DHT22;8244;50.044;9.006;2023-07-31T12:11:43;25.10;92.50
16273;DHT22;8244;50.044;9.006;2023-07-31T12:16:46;25.10;91.80
16273;DHT22;8244;50.044;9.006;2023-07-31T12:21:48;25.00;93.00
16273;DHT22;8244;50.044;9.006;2023-07-31T12:26:50;25.10;91.80
16273;DHT22;8244;50.044;9.006;2023-07-31T12:31:54;24.90;92.60
16273;DHT22;8244;50.044;9.006;2023-07-31T12:36:56;25.00;93.10
16273;DHT22;8244;50.044;9.006;2023-07-31T12:41:57;25.20;93.20
16273;DHT22;8244;50.044;9.006;2023-07-31T12:47:01;25.20;92.50
16273;DHT22;8244;50.044;9.006;2023-07-31T12:52:05;25.10;92.30
16273;DHT22;8244;50.044;9.006;2023-07-31T12:57:07;25.00;93.00
16273;DHT22;8244;50.044;9.006;2023-07-31T13:02:10;25.00;93.10
16273;DHT22;8244;50.044;9.006;2023-07-31T13:07:11;25.10;93.10
16273;DHT22;8244;50.044;9.006;2023-07-31T13:12:13;25.00;91.90
16273;DHT22;8244;50.044;9.006;2023-07-31T13:17:17;24.80;92.70
16273;DHT22;8244;50.044;9.006;2023-07-31T13:22:19;24.70;93.40
16273;DHT22;8244;50.044;9.006;2023-07-31T13:27:21;24.90;93.00
16273;DHT22;8244;50.044;9.006;2023-07-31T13:32:24;25.10;92.80
16273;DHT22;8244;50.044;9.006;2023-07-31T13:37:26;25.30;92.90
16273;DHT22;8244;50.044;9.006;2023-07-31T13:42:28;25.50;91.80
16273;DHT22;8244;50.044;9.006;2023-07-31T13:47:31;25.50;91.90
16273;DHT22;8244;50.044;9.006;2023-07-31T13:52:33;25.50;92.00
16273;DHT22;8244;50.044;9.006;2023-07-31T13:57:35;25.40;91.70
16273;DHT22;8244;50.044;9.006;2023-07-31T14:02:38;25.30;92.50
16273;DHT22;8244;50.044;9.006;2023-07-31T14:07:39;25.50;92.10
16273;DHT22;8244;50.044;9.006;2023-07-31T14:12:41;25.70;92.40
16273;DHT22;8244;50.044;9.006;2023-07-31T14:17:44;25.90;92.00
16273;DHT22;8244;50.044;9.006;2023-07-31T14:22:46;26.10;91.10
16273;DHT22;8244;50.044;9.006;2023-07-31T14:27:47;25.90;91.80
16273;DHT22;8244;50.044;9.006;2023-07-31T14:32:50;25.70;92.40
16273;DHT22;8244;50.044;9.006;2023-07-31T14:37:52;25.90;92.60
16273;DHT22;8244;50.044;9.006;2023-07-31T14:42:54;25.80;91.70
16273;DHT22;8244;50.044;9.006;2023-07-31T14:47:57;25.60;91.60
16273;DHT22;8244;50.044;9.006;2023-07-31T14:52:58;25.50;92.60
16273;DHT22;8244;50.044;9.006;2023-07-31T14:58:01;25.50;92.70
16273;DHT22;8244;50.044;9.006;2023-07-31T15:03:05;25.20;92.50
16273;DHT22;8244;50.044;9.006;2023-07-31T15:08:06;25.00;92.90
16273;DHT22;8244;50.044;9.006;2023-07-31T15:13:08;24.90;92.90
16273;DHT22;8244;50.044;9.006;2023-07-31T15:18:11;24.50;93.80
16273;DHT22;8244;50.044;9.006;2023-07-31T15:23:13;24.40;94.00
16273;DHT22;8244;50.044;9.006;2023-07-31T15:28:14;24.20;94.30
16273;DHT22;8244;50.044;9.006;2023-07-31T15:33:19;24.20;94.70
16273;DHT22;8244;50.044;9.006;2023-07-31T15:38:21;24.10;94.20
16273;DHT22;8244;50.044;9.006;2023-07-31T15:43:22;23.80;94.30
16273;DHT22;8244;50.044;9.006;2023-07-31T15:48:25;23.70;94.60
16273;DHT22;8244;50.044;9.006;2023-07-31T15:53:27;23.40;94.80
16273;DHT22;8244;50.044;9.006;2023-07-31T15:58:29;23.20;95.10
16273;DHT22;8244;50.044;9.006;2023-07-31T16:03:32;23.20;95.60
16273;DHT22;8244;50.044;9.006;2023-07-31T16:08:34;23.10;95.90
16273;DHT22;8244;50.044;9.006;2023-07-31T16:13:41;23.10;96.10
16273;DHT22;8244;50.044;9.006;2023-07-31T16:18:44;23.00;95.90
16273;DHT22;8244;50.044;9.006;2023-07-31T16:23:45;22.90;96.10
16273;DHT22;8244;50.044;9.006;2023-07-31T16:28:47;22.90;96.10
16273;DHT22;8244;50.044;9.006;2023-07-31T16:33:50;22.90;96.00
16273;DHT22;8244;50.044;9.006;2023-07-31T16:38:52;22.80;95.80
16273;DHT22;8244;50.044;9.006;2023-07-31T16:43:54;22.80;95.70
16273;DHT22;8244;50.044;9.006;2023-07-31T16:48:57;22.80;96.30
16273;DHT22;8244;50.044;9.006;2023-07-31T16:53:58;22.90;96.00
16273;DHT22;8244;50.044;9.006;2023-07-31T16:59:00;22.90;95.90
16273;DHT22;8244;50.044;9.006;2023-07-31T17:04:03;22.90;96.10
16273;DHT22;8244;50.044;9.006;2023-07-31T17:09:05;22.90;96.10
16273;DHT22;8244;50.044;9.006;2023-07-31T17:14:07;22.80;96.80
16273;DHT22;8244;50.044;9.006;2023-07-31T17:19:10;22.70;98.10
16273;DHT22;8244;50.044;9.006;2023-07-31T17:24:12;22.40;99.50
16273;DHT22;8244;50.044;9.006;2023-07-31T17:29:14;22.30;99.90
16273;DHT22;8244;50.044;9.006;2023-07-31T17:34:18;22.20;99.90
16273;DHT22;8244;50.044;9.006;2023-07-31T17:39:20;21.90;99.90
16273;DHT22;8244;50.044;9.006;2023-07-31T17:44:21;21.70;99.90
16273;DHT22;8244;50.044;9.006;2023-07-31T17:49:25;21.60;99.90
16273;DHT22;8244;50.044;9.006;2023-07-31T17:54:26;21.50;99.90
16273;DHT22;8244;50.044;9.006;2023-07-31T17:59:28;21.40;99.90
16273;DHT22;8244;50.044;9.006;2023-07-31T18:04:31;21.30;99.90
16273;DHT22;8244;50.044;9.006;2023-07-31T18:09:33;21.20;99.90
16273;DHT22;8244;50.044;9.006;2023-07-31T18:14:35;21.20;99.90
16273;DHT22;8244;50.044;9.006;2023-07-31T18:19:39;21.10;99.90
16273;DHT22;8244;50.044;9.006;2023-07-31T18:24:41;21.00;99.90
16273;DHT22;8244;50.044;9.006;2023-07-31T18:29:43;20.80;99.90
16273;DHT22;8244;50.044;9.006;2023-07-31T18:34:46;20.80;99.90
16273;DHT22;8244;50.044;9.006;2023-07-31T18:39:48;20.70;99.90
16273;DHT22;8244;50.044;9.006;2023-07-31T18:44:49;20.60;99.90
16273;DHT22;8244;50.044;9.006;2023-07-31T18:49:52;20.50;99.90
16273;DHT22;8244;50.044;9.006;2023-07-31T18:54:54;20.50;99.90
16273;DHT22;8244;50.044;9.006;2023-07-31T18:59:56;20.40;99.90
16273;DHT22;8244;50.044;9.006;2023-07-31T19:04:59;20.40;99.90
16273;DHT22;8244;50.044;9.006;2023-07-31T19:10:00;20.30;99.90
16273;DHT22;8244;50.044;9.006;2023-07-31T19:15:03;20.30;99.90
16273;DHT22;8244;50.044;9.006;2023-07-31T19:20:07;20.30;99.90
16273;DHT22;8244;50.044;9.006;2023-07-31T19:25:09;20.20;99.90
16273;DHT22;8244;50.044;9.006;2023-07-31T19:30:11;20.10;99.90
16273;DHT22;8244;50.044;9.006;2023-07-31T19:35:15;20.00;99.90
16273;DHT22;8244;50.044;9.006;2023-07-31T19:40:18;19.90;99.90
16273;DHT22;8244;50.044;9.006;2023-07-31T19:45:21;19.80;99.90
16273;DHT22;8244;50.044;9.006;2023-07-31T19:50:24;19.80;99.90
16273;DHT22;8244;50.044;9.006;2023-07-31T19:55:26;19.80;99.90
16273;DHT22;8244;50.044;9.006;2023-07-31T20:00:29;19.70;99.90
16273;DHT22;8244;50.044;9.006;2023-07-31T20:05:32;19.70;99.90
16273;DHT22;8244;50.044;9.006;2023-07-31T20:10:37;19.60;99.90
16273;DHT22;8244;50.044;9.006;2023-07-31T20:15:39;19.50;99.90
16273;DHT22;8244;50.044;9.006;2023-07-31T20:20:42;19.50;99.90
16273;DHT22;8244;50.044;9.006;2023-07-31T20:25:43;19.40;99.90
16273;DHT22;8244;50.044;9.006;2023-07-31T20:30:45;19.40;99.90
16273;DHT22;8244;50.044;9.006;2023-07-31T20:35:48;19.40;99.90
16273;DHT22;8244;50.044;9.006;2023-07-31T20:40:50;19.40;99.90
16273;DHT22;8244;50.044;9.006;2023-07-31T20:45:52;19.40;99.90
16273;DHT22;8244;50.044;9.006;2023-07-31T20:50:59;19.40;99.90
16273;DHT22;8244;50.044;9.006;2023-07-31T20:56:01;19.40;99.90
16273;DHT22;8244;50.044;9.006;2023-07-31T21:01:02;19.30;99.90
16273;DHT22;8244;50.044;9.006;2023-07-31T21:06:06;19.20;99.90
16273;DHT22;8244;50.044;9.006;2023-07-31T21:11:07;19.10;99.90
16273;DHT22;8244;50.044;9.006;2023-07-31T21:16:09;18.80;99.90
16273;DHT22;8244;50.044;9.006;2023-07-31T21:21:12;18.70;99.90
16273;DHT22;8244;50.044;9.006;2023-07-31T21:26:14;18.60;99.90
16273;DHT22;8244;50.044;9.006;2023-07-31T21:31:15;18.50;99.90
16273;DHT22;8244;50.044;9.006;2023-07-31T21:36:18;18.40;99.90
16273;DHT22;8244;50.044;9.006;2023-07-31T21:41:20;18.30;99.90
16273;DHT22;8244;50.044;9.006;2023-07-31T21:46:22;18.20;99.90
16273;DHT22;8244;50.044;9.006;2023-07-31T21:51:25;18.10;99.90
16273;DHT22;8244;50.044;9.006;2023-07-31T21:56:27;18.00;99.90
16273;DHT22;8244;50.044;9.006;2023-07-31T22:01:29;18.00;99.90
16273;DHT22;8244;50.044;9.006;2023-07-31T22:06:32;17.90;99.90
16273;DHT22;8244;50.044;9.006;2023-07-31T22:11:34;17.90;99.90
16273;DHT22;8244;50.044;9.006;2023-07-31T22:16:35;17.80;99.90
16273;DHT22;8244;50.044;9.006;2023-07-31T22:21:38;17.80;99.90
16273;DHT22;8244;50.044;9.006;2023-07-31T22:26:40;17.80;99.90
16273;DHT22;8244;50.044;9.006;2023-07-31T22:31:42;17.80;99.90
16273;DHT22;8244;50.044;9.006;2023-07-31T22:36:45;17.70;99.90
16273;DHT22;8244;50.044;9.006;2023-07-31T22:41:46;17.70;99.90
16273;DHT22;8244;50.044;9.006;2023-07-31T22:46:48;17.60;99.90
16273;DHT22;8244;50.044;9.006;2023-07-31T22:51:51;17.60;99.90
16273;DHT22;8244;50.044;9.006;2023-07-31T22:56:53;17.60;99.90
16273;DHT22;8244;50.044;9.006;2023-07-31T23:01:55;17.60;99.90
16273;DHT22;8244;50.044;9.006;2023-07-31T23:06:59;17.60;99.90
16273;DHT22;8244;50.044;9.006;2023-07-31T23:12:00;17.70;99.90
16273;DHT22;8244;50.044;9.006;2023-07-31T23:17:02;17.70;99.90
16273;DHT22;8244;50.044;9.006;2023-07-31T23:22:06;17.60;99.90
16273;DHT22;8244;50.044;9.006;2023-07-31T23:27:08;17.60;99.90
16273;DHT22;8244;50.044;9.006;2023-07-31T23:32:09;17.60;99.90
16273;DHT22;8244;50.044;9.006;2023-07-31T23:37:13;17.60;99.90
16273;DHT22;8244;50.044;9.006;2023-07-31T23:42:14;17.60;99.90
16273;DHT22;8244;50.044;9.006;2023-07-31T23:47:17;17.60;99.90
16273;DHT22;8244;50.044;9.006;2023-07-31T23:52:20;17.60;99.90
16273;DHT22;8244;50.044;9.006;2023-07-31T23:57:22;17.60;99.90
